AirNav   Pilot Hours Calculator
 
 1339 users online  

8XS3 J A Knolle Airport
Sandia, Texas, USA

GOING TO SANDIA?


FAA INFORMATION EFFECTIVE 31 DECEMBER 2020

Location

FAA Identifier: 8XS3
Lat/Long: 27-59-38.0100N 097-49-14.0400W
27-59.633500N 097-49.234000W
27.9938917,-97.8205667
(estimated)
Elevation: 41 ft. / 12 m (estimated)
From city: 4 miles SE of SANDIA, TX
Time zone: UTC -6 (UTC -5 during Daylight Saving Time)
Zip code: 78368

Airport Operations

Airport use: Private use. Permission required prior to landing
Activation date: 08/2018
Control tower: no
ARTCC: HOUSTON CENTER
FSS: SAN ANGELO FLIGHT SERVICE STATION
Attendance: 
Wind indicator: yes
Segmented circle: no

Airport Communications

WX AWOS-3 at RBO (15 nm SE): 118.175 (361-767-1982)
WX AWOS-3 at T69 (15 nm E): 118.25 (361-364-1844)
WX ASOS at ALI (19 nm SW): 119.225 (361-668-0069)

Nearby radio navigation aids

VOR radial/distance  VOR name  Freq  Var
ALIr029/(18.6)ALICE VOR114.5006E
CRPr276/20.6CORPUS CHRISTI VORTAC115.5009E
THXr142/35.3THREE RIVERS VORTAC111.4008E

 
NDB name  Hdg/Dist  Freq  Var  ID
MELLON RANCH236/36.837506EMNO -- -. ---

Airport Services

Runway Information

Runway 13/31

Dimensions: 3000 x 50 ft. / 914 x 15 m
Surface: turf, in good condition
RUNWAY 13  RUNWAY 31
Traffic pattern: rightleft

Airport Ownership and Management from official FAA records

Ownership: Privately-owned
Owner: PEARSON KNOLLE
PO BOX 119
SANDIA, TX 78383
Phone 361-813-6551
Manager: PEARSON KNOLLE
PO BOX 119
SANDIA, TX 78383
Phone 361-813-6551

Additional Remarks

OWNER DESIRES CHARTING

Instrument Procedures

There are no published instrument procedures at 8XS3.

Some nearby airports with instrument procedures:

KNOG - Orange Grove Naval Auxiliary Field (13 nm SW)
KRBO - Nueces County Airport (15 nm SE)
T69 - Alfred C 'Bubba' Thomas Airport (15 nm E)
KALI - Alice International Airport (19 nm SW)
KCRP - Corpus Christi International Airport (21 nm SE)
 
Loc | Ops | Rwys | IFR | FBO | Links
Com | Nav | Svcs | Stats | Notes
Aerial photo
No photo
 
Airport distance calculator
Flying to J A Knolle Airport? Find the distance to fly.

From to 8XS3

Sunrise and sunset
Times for 18-Jan-2021
 Local
(UTC-6)
 Zulu
(UTC)
Morning civil twilight06:5912:59
Sunrise07:2513:25
Sunset17:5923:59
Evening civil twilight18:2400:24

Current date and time
Zulu (UTC)  18-Jan-2021 17:19:53
Local (UTC-6)  18-Jan-2021 11:19:53
 
METAR
KNOG 
13nm SW 
181656Z AUTO 20014KT 10SM SCT015 A3005 RMK AO2 SLPNO PWINO FZRANO PNO $
KRBO 
15nm SE 
181655Z AUTO 17015G20KT 10SM OVC015 23/19 A3005 RMK AO2 T02280190
KT69 
15nm E 
181655Z AUTO 20015KT 10SM BKN015 OVC021 21/17 A3006 RMK A01
KCRP 
22nm SE 
181651Z 18014KT 10SM SCT013 BKN021 BKN028 21/18 A3005 RMK AO2 SLP176 T02110178
KBEA 
22nm N 
181655Z AUTO 17010KT 10SM BKN013 OVC020 21/18 A3005 RMK AO2 T02090180
TAF
KALI 
19nm SW 
181128Z 1812/1912 VRB05KT 6SM BR FEW005 SCT013 TEMPO 1812/1814 2SM BR OVC005 FM181700 17015G22KT P6SM SCT040 FM190000 15014KT P6SM SCT025 BKN040 TEMPO 1904/1908 BKN025 FM190800 16009KT P6SM BKN020 AMD NOT SKED
KCRP 
22nm SE 
181341Z 1814/1912 14006KT P6SM SCT020 FM181600 17012KT P6SM BKN020 FM181800 16020G28KT P6SM BKN025 OVC050 TEMPO 1820/1824 SCT025 BKN050 FM190000 15016G21KT P6SM SCT030 BKN050 FM190800 16011KT P6SM BKN015
NOTAMs
Click for the latest NOTAMs
NOTAMs are issued by the DoD/FAA and will open in a separate window not controlled by AirNav.

 

 
 

Would you like to see your business listed on this page?

 If your business provides an interesting product or service to pilots, flight crews, aircraft, or users of the J A Knolle Airport, you should consider listing it here.  To start the listing process, click on the button below
 
Add a business
 

Other Pages about J A Knolle Airport

Update a link
 
Copyright © AirNav, LLC. All rights reserved. Privacy Policy  Contact